createdAt,value
2022-12-04T00:01:50.221Z,30.58
2022-12-04T00:04:16.525Z,23.95
2022-12-04T00:06:42.884Z,30.27
2022-12-04T00:09:09.581Z,26.90
2022-12-04T00:11:35.881Z,21.80
2022-12-04T00:14:07.136Z,27.00
2022-12-04T00:16:33.991Z,27.55
2022-12-04T00:19:00.324Z,24.88
2022-12-04T00:21:26.602Z,21.27
2022-12-04T00:23:53.332Z,20.92
2022-12-04T00:26:21.285Z,24.38
2022-12-04T00:28:48.384Z,25.60
2022-12-04T00:31:17.698Z,23.08
2022-12-04T00:33:44.289Z,26.58
2022-12-04T00:36:11.496Z,19.92
2022-12-04T00:38:38.060Z,20.65
2022-12-04T00:41:04.745Z,18.83
2022-12-04T00:43:31.522Z,19.70
2022-12-04T00:45:57.888Z,24.30
2022-12-04T00:48:25.682Z,21.35
2022-12-04T00:50:51.961Z,30.48
2022-12-04T00:53:18.249Z,17.05
2022-12-04T00:55:44.504Z,22.92
2022-12-04T00:58:11.169Z,22.13
2022-12-04T01:00:38.818Z,23.83
2022-12-04T01:03:05.300Z,23.15
2022-12-04T01:05:37.462Z,26.25
2022-12-04T01:08:03.789Z,23.60
2022-12-04T01:10:30.122Z,21.67
2022-12-04T01:12:56.411Z,21.15
2022-12-04T01:15:22.689Z,23.90
2022-12-04T01:17:48.963Z,25.63
2022-12-04T01:20:16.037Z,28.55
2022-12-04T01:22:43.649Z,18.10
2022-12-04T01:25:10.225Z,23.33
2022-12-04T01:27:36.518Z,20.60
2022-12-04T01:30:03.434Z,22.00
2022-12-04T01:32:29.734Z,19.85
2022-12-04T01:34:56.022Z,21.48
2022-12-04T01:37:22.298Z,21.23
2022-12-04T01:39:49.914Z,23.60
2022-12-04T01:42:16.294Z,22.90
2022-12-04T01:44:43.458Z,21.23
2022-12-04T01:47:10.000Z,23.45
2022-12-04T01:49:37.914Z,21.55
2022-12-04T01:52:05.200Z,25.42
2022-12-04T01:54:33.971Z,22.45
2022-12-04T01:57:03.463Z,22.15
2022-12-04T01:59:31.625Z,21.27
2022-12-04T02:02:01.090Z,19.45
2022-12-04T02:04:27.586Z,23.05
2022-12-04T02:06:53.882Z,20.50
2022-12-04T02:09:25.959Z,19.45
2022-12-04T02:11:57.541Z,23.00
2022-12-04T02:14:30.867Z,21.30
2022-12-04T02:17:02.478Z,21.00
2022-12-04T02:19:44.799Z,24.67
2022-12-04T02:22:16.019Z,20.15
2022-12-04T02:24:50.139Z,29.77
2022-12-04T02:27:21.000Z,21.05
2022-12-04T02:29:55.171Z,23.73
2022-12-04T02:32:22.982Z,22.33
2022-12-04T02:34:53.008Z,30.48
2022-12-04T02:37:21.339Z,22.52
2022-12-04T02:39:50.762Z,18.92
2022-12-04T02:42:19.597Z,19.77
2022-12-04T02:44:47.433Z,20.10
2022-12-04T02:47:19.004Z,19.38
2022-12-04T02:49:47.097Z,28.27
2022-12-04T02:52:15.127Z,21.15
2022-12-04T02:54:42.876Z,21.23
2022-12-04T02:57:10.950Z,23.42
2022-12-04T02:59:39.319Z,23.38
2022-12-04T03:02:10.455Z,17.50
2022-12-04T03:04:39.031Z,20.23
2022-12-04T03:07:08.988Z,17.05
2022-12-04T03:09:37.411Z,18.13
2022-12-04T03:12:05.907Z,18.98
2022-12-04T03:17:00.254Z,15.55
2022-12-04T03:19:27.863Z,19.23
2022-12-04T03:21:57.215Z,19.27
2022-12-04T03:24:24.543Z,21.23
2022-12-04T03:26:55.291Z,18.75
2022-12-04T03:29:23.120Z,14.70
2022-12-04T03:31:51.005Z,15.25
2022-12-04T03:34:22.423Z,19.75
2022-12-04T03:36:52.487Z,13.48
2022-12-04T03:39:22.677Z,13.23
2022-12-04T03:41:54.433Z,15.05
2022-12-04T03:44:22.304Z,12.93
2022-12-04T03:46:54.303Z,12.57
2022-12-04T03:49:23.464Z,16.95
2022-12-04T03:54:17.456Z,10.43
2022-12-04T03:56:48.339Z,18.50
2022-12-04T03:59:17.028Z,14.52
2022-12-04T04:01:46.263Z,9.27
2022-12-04T04:04:15.771Z,13.93
2022-12-04T04:06:45.222Z,15.98
2022-12-04T04:09:13.220Z,16.33
2022-12-04T04:11:41.499Z,14.65
2022-12-04T04:14:11.663Z,12.13
2022-12-04T04:16:40.240Z,15.98
2022-12-04T04:19:07.090Z,12.73
2022-12-04T04:21:36.195Z,10.00
2022-12-04T04:26:31.125Z,14.13
2022-12-04T04:28:57.456Z,13.07
2022-12-04T04:31:30.550Z,14.65
2022-12-04T04:33:59.372Z,13.23
2022-12-04T04:36:30.416Z,12.23
2022-12-04T04:38:59.487Z,14.98
2022-12-04T04:41:28.721Z,18.85
2022-12-04T04:43:57.220Z,13.18
2022-12-04T04:46:27.318Z,13.65
2022-12-04T04:48:56.452Z,14.18
2022-12-04T04:53:50.796Z,12.60
2022-12-04T04:56:17.130Z,11.67
2022-12-04T04:58:43.417Z,15.25
2022-12-04T05:01:11.574Z,15.15
2022-12-04T05:03:39.710Z,12.77
2022-12-04T05:06:06.116Z,13.13
2022-12-04T05:08:32.401Z,10.65
2022-12-04T05:10:58.829Z,21.17
2022-12-04T05:13:25.165Z,15.82
2022-12-04T05:15:58.421Z,12.75
2022-12-04T05:18:24.785Z,17.00
2022-12-04T05:20:52.422Z,16.25
2022-12-04T05:23:18.871Z,15.80
2022-12-04T05:25:45.213Z,15.63
2022-12-04T05:28:11.493Z,10.95
2022-12-04T05:30:37.902Z,13.13
2022-12-04T05:33:04.177Z,16.55
2022-12-04T05:35:30.453Z,15.43
2022-12-04T05:37:58.085Z,14.15
2022-12-04T05:40:24.378Z,15.43
2022-12-04T05:42:50.634Z,15.30
2022-12-04T05:45:17.021Z,16.50
2022-12-04T05:47:43.705Z,17.42
2022-12-04T05:50:11.278Z,16.70
2022-12-04T05:52:37.597Z,19.00
2022-12-04T05:55:05.766Z,18.15
2022-12-04T05:57:32.054Z,23.33
2022-12-04T05:59:58.629Z,12.75
2022-12-04T06:02:25.042Z,16.17
2022-12-04T06:04:51.567Z,13.23
2022-12-04T06:07:17.871Z,13.40
2022-12-04T06:09:44.208Z,13.55
2022-12-04T06:12:11.829Z,14.73
2022-12-04T06:14:39.920Z,13.48
2022-12-04T06:17:06.677Z,13.97
2022-12-04T06:19:32.941Z,16.85
2022-12-04T06:21:59.202Z,15.50
2022-12-04T06:24:25.478Z,18.88
2022-12-04T06:27:26.141Z,12.50
2022-12-04T06:29:43.127Z,10.18
2022-12-04T06:32:09.476Z,12.25
2022-12-04T06:34:35.816Z,9.82
2022-12-04T06:37:02.083Z,11.85
2022-12-04T06:39:28.517Z,15.05
2022-12-04T06:41:54.877Z,14.50
2022-12-04T06:44:21.257Z,14.05
2022-12-04T06:46:50.023Z,16.23
2022-12-04T06:49:16.541Z,11.18
2022-12-04T06:51:42.799Z,13.85
2022-12-04T06:54:09.521Z,14.35
2022-12-04T06:56:35.763Z,11.13
2022-12-04T06:59:02.950Z,12.35
2022-12-04T07:01:30.548Z,12.95
2022-12-04T07:03:58.482Z,9.65
2022-12-04T07:06:25.430Z,11.82
2022-12-04T07:08:52.744Z,12.52
2022-12-04T07:11:19.547Z,15.93
2022-12-04T07:13:45.815Z,11.90
2022-12-04T07:16:13.638Z,15.00
2022-12-04T07:18:40.392Z,14.73
2022-12-04T07:21:08.871Z,14.65
2022-12-04T07:23:35.281Z,13.98
2022-12-04T07:26:04.647Z,9.88
2022-12-04T07:28:30.888Z,8.85
2022-12-04T07:30:57.178Z,13.30
2022-12-04T07:33:23.456Z,13.98
2022-12-04T07:35:54.664Z,17.58
2022-12-04T07:38:22.284Z,13.88
2022-12-04T07:40:48.563Z,11.25
2022-12-04T07:43:14.844Z,13.75
2022-12-04T07:45:41.334Z,12.60
2022-12-04T07:48:07.693Z,12.73
2022-12-04T07:50:33.986Z,13.90
2022-12-04T07:53:00.228Z,12.70
2022-12-04T07:55:41.433Z,13.07
2022-12-04T07:58:09.129Z,13.38
2022-12-04T08:00:35.933Z,13.02
2022-12-04T08:03:02.310Z,15.27
2022-12-04T08:05:28.588Z,12.43
2022-12-04T08:07:54.893Z,11.10
2022-12-04T08:10:21.225Z,19.38
2022-12-04T08:12:47.520Z,15.38
2022-12-04T08:15:15.238Z,15.20
2022-12-04T08:17:41.532Z,15.75
2022-12-04T08:20:08.056Z,13.77
2022-12-04T08:22:34.353Z,15.23
2022-12-04T08:25:00.615Z,16.13
2022-12-04T08:27:26.919Z,16.25
2022-12-04T08:29:53.601Z,14.13
2022-12-04T08:32:21.493Z,12.82
2022-12-04T08:34:55.387Z,12.40
2022-12-04T08:37:22.087Z,16.85
2022-12-04T08:39:48.317Z,16.88
2022-12-04T08:42:14.570Z,15.35
2022-12-04T08:44:40.858Z,15.43
2022-12-04T08:47:07.233Z,12.07
2022-12-04T08:49:34.930Z,14.82
2022-12-04T08:52:01.227Z,11.43
2022-12-04T08:54:30.593Z,18.75
2022-12-04T08:57:00.750Z,18.08
2022-12-04T08:59:27.044Z,13.20
2022-12-04T09:01:53.422Z,10.60
2022-12-04T09:04:19.851Z,12.20
2022-12-04T09:06:47.509Z,18.15
2022-12-04T09:09:13.782Z,13.18
2022-12-04T09:11:40.070Z,13.30
2022-12-04T09:14:06.362Z,20.55
2022-12-04T09:16:32.762Z,12.15
2022-12-04T09:18:59.097Z,12.25
2022-12-04T09:21:25.488Z,14.02
2022-12-04T09:23:53.183Z,11.45
2022-12-04T09:26:21.106Z,16.05
2022-12-04T09:28:47.683Z,17.98
2022-12-04T09:31:14.330Z,13.45
2022-12-04T09:33:40.683Z,11.68
2022-12-04T09:36:07.240Z,15.32
2022-12-04T09:38:33.530Z,14.10
2022-12-04T09:41:03.279Z,14.48
2022-12-04T09:43:33.267Z,12.10
2022-12-04T09:46:02.167Z,18.15
2022-12-04T09:48:31.918Z,15.27
2022-12-04T09:50:59.080Z,15.57
2022-12-04T09:53:27.279Z,18.15
2022-12-04T09:55:55.808Z,11.80
2022-12-04T09:58:25.816Z,13.00
2022-12-04T10:00:54.651Z,15.98
2022-12-04T10:03:24.923Z,12.57
2022-12-04T10:05:54.580Z,13.75
2022-12-04T10:08:22.620Z,15.20
2022-12-04T10:10:55.184Z,12.60
2022-12-04T10:13:39.174Z,13.68
2022-12-04T10:16:12.992Z,13.80
2022-12-04T10:18:44.180Z,16.48
2022-12-04T10:21:26.894Z,17.73
2022-12-04T10:24:01.704Z,18.02
2022-12-04T10:26:30.213Z,13.95
2022-12-04T10:28:59.145Z,19.73
2022-12-04T10:31:26.201Z,14.70
2022-12-04T10:33:54.697Z,17.80
2022-12-04T10:36:23.437Z,12.90
2022-12-04T10:38:52.071Z,16.65
2022-12-04T10:41:21.349Z,12.65
2022-12-04T10:43:48.529Z,16.15
2022-12-04T10:46:18.807Z,13.00
2022-12-04T10:48:46.820Z,13.80
2022-12-04T10:51:14.378Z,14.98
2022-12-04T10:53:40.713Z,21.27
2022-12-04T10:56:10.798Z,19.73
2022-12-04T10:58:37.072Z,15.45
2022-12-04T11:01:06.753Z,18.52
2022-12-04T11:03:35.094Z,16.67
2022-12-04T11:06:02.514Z,15.52
2022-12-04T11:08:32.545Z,14.35
2022-12-04T11:11:00.054Z,13.95
2022-12-04T11:13:26.551Z,20.77
2022-12-04T11:15:53.680Z,12.75
2022-12-04T11:18:21.019Z,15.95
2022-12-04T11:20:53.359Z,13.57
2022-12-04T11:23:19.854Z,13.50
2022-12-04T11:25:47.321Z,13.82
2022-12-04T11:28:39.752Z,14.55
2022-12-04T11:31:04.100Z,18.15
2022-12-04T11:33:35.133Z,23.45
2022-12-04T11:36:06.249Z,14.57
2022-12-04T11:38:33.916Z,16.85
2022-12-04T11:41:01.740Z,16.25
2022-12-04T11:43:29.273Z,18.58
2022-12-04T11:45:57.244Z,16.05
2022-12-04T11:48:23.908Z,12.68
2022-12-04T11:50:54.109Z,10.82
2022-12-04T11:53:24.153Z,13.85
2022-12-04T11:55:56.406Z,13.75
2022-12-04T11:58:31.903Z,21.17
2022-12-04T12:01:04.757Z,17.75
2022-12-04T12:03:34.406Z,15.32
2022-12-04T12:06:07.348Z,16.80
2022-12-04T12:08:43.221Z,14.68
2022-12-04T12:11:13.337Z,18.60
2022-12-04T12:13:44.077Z,11.43
2022-12-04T12:16:15.838Z,14.20
2022-12-04T12:18:49.751Z,16.30
2022-12-04T12:21:17.749Z,12.48
2022-12-04T12:23:49.725Z,16.52
2022-12-04T12:26:16.931Z,14.70
2022-12-04T12:29:04.597Z,15.82
2022-12-04T12:31:39.589Z,17.50
2022-12-04T12:34:08.544Z,20.27
2022-12-04T12:36:41.295Z,14.98
2022-12-04T12:39:13.878Z,20.75
2022-12-04T12:41:43.131Z,17.33
2022-12-04T12:44:12.445Z,13.90
2022-12-04T12:46:44.364Z,20.05
2022-12-04T12:51:37.678Z,17.40
2022-12-04T12:54:09.710Z,17.73
2022-12-04T12:56:41.315Z,17.30
2022-12-04T12:59:14.166Z,20.15
2022-12-04T13:01:44.641Z,16.25
2022-12-04T13:04:14.382Z,29.92
2022-12-04T13:06:44.122Z,21.05
2022-12-04T13:09:15.419Z,19.02
2022-12-04T13:11:44.338Z,20.40
2022-12-04T13:14:12.987Z,14.80
2022-12-04T13:16:41.567Z,13.65
2022-12-04T13:19:11.006Z,16.75
2022-12-04T13:21:39.710Z,14.60
2022-12-04T13:24:24.956Z,15.77
2022-12-04T13:26:55.648Z,18.33
2022-12-04T13:29:30.186Z,18.73
2022-12-04T13:32:01.062Z,14.30
2022-12-04T13:34:38.619Z,13.18
2022-12-04T13:37:22.886Z,18.33
2022-12-04T13:40:07.992Z,15.30
2022-12-04T13:42:35.811Z,15.50
2022-12-04T13:45:06.047Z,15.40
2022-12-04T13:47:33.147Z,18.63
2022-12-04T13:50:06.804Z,13.48
2022-12-04T13:52:37.316Z,13.82
2022-12-04T13:55:03.907Z,17.10
2022-12-04T13:57:30.223Z,13.45
2022-12-04T14:00:04.511Z,12.48
2022-12-04T14:02:38.903Z,14.90
2022-12-04T14:05:06.264Z,15.32
2022-12-04T14:07:33.955Z,17.92
2022-12-04T14:10:01.852Z,16.90
2022-12-04T14:12:29.917Z,13.20
2022-12-04T14:14:58.203Z,12.55
2022-12-04T14:17:28.103Z,19.33
2022-12-04T14:19:55.706Z,13.20
2022-12-04T14:22:25.971Z,17.83
2022-12-04T14:24:52.400Z,13.52
2022-12-04T14:27:32.774Z,14.75
2022-12-04T14:29:59.759Z,18.92
2022-12-04T14:32:28.778Z,13.38
2022-12-04T14:34:56.546Z,15.57
2022-12-04T14:37:26.436Z,12.25
2022-12-04T14:39:52.841Z,16.90
2022-12-04T14:42:22.792Z,17.05
2022-12-04T14:44:52.174Z,13.80
2022-12-04T14:47:21.866Z,20.67
2022-12-04T14:49:55.185Z,13.52
2022-12-04T14:52:25.157Z,18.00
2022-12-04T14:54:56.543Z,21.70
2022-12-04T14:57:29.980Z,12.85
2022-12-04T14:59:56.373Z,17.20
2022-12-04T15:02:33.337Z,15.20
2022-12-04T15:05:01.940Z,13.57
2022-12-04T15:07:30.709Z,14.00
2022-12-04T15:09:57.890Z,11.57
2022-12-04T15:12:24.645Z,19.58
2022-12-04T15:14:51.086Z,16.30
2022-12-04T15:17:17.953Z,13.48
2022-12-04T15:19:44.281Z,11.90
2022-12-04T15:22:17.242Z,13.48
2022-12-04T15:24:43.554Z,12.15
2022-12-04T15:27:10.754Z,16.08
2022-12-04T15:29:37.765Z,15.10
2022-12-04T15:32:05.945Z,23.02
2022-12-04T15:34:36.153Z,14.32
2022-12-04T15:37:04.607Z,18.40
2022-12-04T15:39:33.023Z,18.83
2022-12-04T15:42:05.877Z,16.90
2022-12-04T15:44:32.898Z,13.73
2022-12-04T15:47:00.659Z,15.48
2022-12-04T15:49:28.344Z,17.85
2022-12-04T15:52:03.481Z,15.85
2022-12-04T15:54:29.829Z,18.58
2022-12-04T15:56:58.517Z,15.38
2022-12-04T15:59:25.510Z,18.15
2022-12-04T16:01:51.978Z,16.60
2022-12-04T16:04:19.346Z,12.80
2022-12-04T16:06:46.434Z,15.30
2022-12-04T16:09:17.724Z,16.35
2022-12-04T16:11:44.308Z,14.23
2022-12-04T16:14:16.066Z,15.93
2022-12-04T16:16:43.528Z,16.70
2022-12-04T16:19:13.551Z,16.45
2022-12-04T16:21:40.371Z,17.48
2022-12-04T16:24:07.347Z,14.13
2022-12-04T16:26:33.701Z,12.25
2022-12-04T16:29:00.007Z,22.52
2022-12-04T16:31:27.853Z,21.40
2022-12-04T16:33:54.368Z,19.67
2022-12-04T16:36:20.944Z,19.77
2022-12-04T16:38:47.336Z,19.70
2022-12-04T16:41:14.217Z,22.35
2022-12-04T16:43:40.507Z,21.92
2022-12-04T16:46:11.902Z,25.17
2022-12-04T16:48:40.631Z,17.65
2022-12-04T16:51:08.532Z,24.85
2022-12-04T16:53:34.902Z,19.48
2022-12-04T16:56:01.286Z,13.65
2022-12-04T16:58:27.643Z,15.23
2022-12-04T17:00:54.762Z,18.40
2022-12-04T17:03:23.503Z,18.58
2022-12-04T17:05:51.306Z,18.85
2022-12-04T17:08:17.658Z,18.55
2022-12-04T17:10:44.239Z,23.08
2022-12-04T17:13:10.528Z,22.42
2022-12-04T17:15:36.828Z,19.85
2022-12-04T17:18:08.972Z,18.05
2022-12-04T17:20:39.888Z,21.02
2022-12-04T17:23:07.598Z,22.00
2022-12-04T17:25:34.020Z,17.45
2022-12-04T17:28:00.388Z,25.95
2022-12-04T17:30:31.386Z,19.88
2022-12-04T17:33:00.678Z,22.15
2022-12-04T17:35:27.360Z,17.10
2022-12-04T17:37:53.689Z,28.60
2022-12-04T17:40:21.438Z,21.67
2022-12-04T17:42:47.789Z,22.92
2022-12-04T17:45:14.232Z,23.77
2022-12-04T17:47:40.581Z,23.42
2022-12-04T17:50:07.272Z,22.05
2022-12-04T17:52:33.725Z,23.05
2022-12-04T17:55:00.025Z,25.20
2022-12-04T17:57:28.475Z,21.90
2022-12-04T17:59:54.914Z,25.48
2022-12-04T18:02:21.308Z,23.70
2022-12-04T18:04:47.650Z,18.65
2022-12-04T18:07:13.940Z,23.55
2022-12-04T18:09:40.291Z,22.50
2022-12-04T18:12:06.706Z,19.02
2022-12-04T18:14:34.413Z,22.40
2022-12-04T18:17:00.770Z,18.58
2022-12-04T18:19:28.017Z,23.55
2022-12-04T18:21:54.632Z,20.80
2022-12-04T18:24:21.177Z,26.02
2022-12-04T18:26:47.810Z,26.00
2022-12-04T18:29:14.815Z,25.52
2022-12-04T18:31:42.547Z,17.70
2022-12-04T18:34:09.146Z,20.00
2022-12-04T18:36:35.973Z,18.77
2022-12-04T18:39:03.763Z,24.60
2022-12-04T18:41:30.117Z,21.60
2022-12-04T18:43:56.845Z,21.35
2022-12-04T18:46:23.831Z,23.02
2022-12-04T18:48:52.607Z,17.13
2022-12-04T18:51:20.918Z,24.40
2022-12-04T18:53:47.725Z,18.25
2022-12-04T18:56:14.381Z,23.15
2022-12-04T18:58:40.730Z,17.98
2022-12-04T19:01:07.685Z,16.70
2022-12-04T19:03:34.338Z,24.05
2022-12-04T19:06:05.502Z,18.05
2022-12-04T19:08:34.927Z,17.90
2022-12-04T19:11:07.146Z,23.38
2022-12-04T19:13:33.762Z,19.77
2022-12-04T19:16:00.049Z,23.02
2022-12-04T19:18:26.357Z,18.27
2022-12-04T19:20:52.670Z,16.20
2022-12-04T19:23:20.322Z,17.52
2022-12-04T19:25:53.756Z,20.42
2022-12-04T19:28:20.096Z,18.30
2022-12-04T19:30:46.411Z,16.23
2022-12-04T19:33:12.715Z,20.73
2022-12-04T19:35:39.029Z,20.77
2022-12-04T19:38:05.371Z,21.65
2022-12-04T19:40:36.107Z,22.95
2022-12-04T19:43:03.162Z,20.65
2022-12-04T19:45:29.719Z,23.80
2022-12-04T19:47:56.051Z,21.50
2022-12-04T19:50:22.355Z,21.65
2022-12-04T19:52:48.660Z,19.83
2022-12-04T19:55:15.046Z,24.85
2022-12-04T19:57:42.718Z,20.35
2022-12-04T20:00:09.490Z,23.35
2022-12-04T20:02:38.521Z,19.35
2022-12-04T20:05:05.195Z,22.40
2022-12-04T20:07:31.530Z,26.17
2022-12-04T20:09:58.207Z,24.65
2022-12-04T20:12:24.721Z,18.85
2022-12-04T20:14:52.388Z,19.55
2022-12-04T20:17:18.690Z,23.60
2022-12-04T20:19:44.962Z,21.48
2022-12-04T20:22:11.315Z,19.45
2022-12-04T20:24:37.723Z,20.38
2022-12-04T20:27:04.047Z,21.33
2022-12-04T20:29:30.323Z,25.40
2022-12-04T20:31:57.956Z,23.77
2022-12-04T20:34:24.251Z,17.25
2022-12-04T20:36:50.548Z,20.67
2022-12-04T20:39:18.415Z,19.30
2022-12-04T20:41:44.828Z,22.05
2022-12-04T20:44:12.414Z,24.38
2022-12-04T20:46:39.276Z,15.85
2022-12-04T20:49:08.140Z,18.60
2022-12-04T20:51:35.241Z,19.88
2022-12-04T20:54:02.125Z,35.60
2022-12-04T20:56:29.124Z,20.25
2022-12-04T20:58:55.799Z,20.75
2022-12-04T21:01:22.137Z,27.67
2022-12-04T21:03:48.540Z,22.23
2022-12-04T21:06:17.935Z,19.98
2022-12-04T21:08:45.872Z,19.67
2022-12-04T21:11:12.289Z,21.08
2022-12-04T21:13:38.772Z,20.80
2022-12-04T21:16:05.199Z,21.17
2022-12-04T21:18:31.549Z,18.92
2022-12-04T21:20:58.064Z,22.42
2022-12-04T21:23:25.809Z,22.88
2022-12-04T21:25:54.628Z,19.45
2022-12-04T21:28:20.981Z,21.80
2022-12-04T21:30:47.369Z,20.77
2022-12-04T21:33:13.724Z,27.20
2022-12-04T21:35:40.036Z,22.77
2022-12-04T21:38:06.362Z,24.88
2022-12-04T21:40:39.006Z,18.40
2022-12-04T21:43:08.401Z,17.95
2022-12-04T21:45:34.762Z,21.20
2022-12-04T21:48:01.089Z,19.90
2022-12-04T21:50:27.401Z,20.20
2022-12-04T21:52:54.042Z,17.27
2022-12-04T21:55:20.348Z,18.67
2022-12-04T21:57:48.024Z,24.38
2022-12-04T22:00:14.866Z,17.65
2022-12-04T22:02:41.234Z,22.00
2022-12-04T22:05:08.022Z,22.35
2022-12-04T22:07:34.417Z,19.10
2022-12-04T22:10:05.554Z,26.45
2022-12-04T22:12:50.867Z,21.55
2022-12-04T22:15:18.748Z,23.20
2022-12-04T22:17:45.082Z,20.10
2022-12-04T22:20:11.450Z,27.73
2022-12-04T22:22:37.830Z,25.88
2022-12-04T22:25:04.313Z,23.92
2022-12-04T22:27:30.695Z,20.83
2022-12-04T22:29:57.095Z,20.10
2022-12-04T22:32:24.790Z,22.25
2022-12-04T22:34:51.106Z,18.15
2022-12-04T22:37:17.495Z,17.45
2022-12-04T22:39:43.815Z,25.88
2022-12-04T22:42:10.327Z,20.83
2022-12-04T22:44:36.600Z,28.60
2022-12-04T22:47:03.109Z,23.80
2022-12-04T22:49:30.796Z,27.60
2022-12-04T22:51:57.107Z,27.92
2022-12-04T22:54:23.415Z,20.67
2022-12-04T22:56:49.735Z,33.08
2022-12-04T22:59:16.088Z,31.13
2022-12-04T23:01:42.369Z,32.80
2022-12-04T23:04:09.499Z,32.42
2022-12-04T23:06:37.151Z,26.95
2022-12-04T23:09:04.692Z,27.77
2022-12-04T23:11:30.983Z,32.55
2022-12-04T23:13:58.175Z,32.13
2022-12-04T23:16:24.654Z,40.20
2022-12-04T23:18:51.236Z,35.03
2022-12-04T23:21:18.081Z,39.20
2022-12-04T23:23:46.435Z,30.63
2022-12-04T23:26:14.004Z,27.50
2022-12-04T23:28:40.380Z,32.97
2022-12-04T23:31:06.780Z,35.15
2022-12-04T23:33:33.356Z,36.35
2022-12-04T23:36:00.667Z,45.20
2022-12-04T23:38:27.795Z,34.58
2022-12-04T23:41:01.176Z,34.47
2022-12-04T23:43:27.460Z,32.35
2022-12-04T23:45:53.777Z,30.60
2022-12-04T23:48:20.084Z,32.22
2022-12-04T23:50:46.368Z,32.10
2022-12-04T23:53:12.716Z,25.98
2022-12-04T23:55:39.060Z,38.65
2022-12-04T23:58:06.779Z,37.85
